Time;durP1;ratioP1;P1;durP2;ratioP2;P2;SDS_P1;SDS_P2;PMS_P1;PMS_P2;Temp;Humidity;BMP_temperature;BMP_pressure;BME280_temperature;BME280_humidity;BME280_pressure;Samples;Min_cycle;Max_cycle;Signal;HPM_P1;HPM_P2
2021/04/15 00:14:39;;;;;;;;;;;;;;;;;;5086345;28;20353;-55
2021/04/15 00:17:05;;;;;;;0.20;0.20;;;;;;;;;;5067936;28;19963;-55
2021/04/15 00:19:31;;;;;;;0.10;0.10;;;;;;;;;;5056660;28;20033;-59
2021/04/15 00:21:57;;;;;;;0.28;0.28;;;;;;;;;;5056577;28;20490;-56
2021/04/15 00:24:23;;;;;;;0.20;0.20;;;;;;;;;;5056302;28;20032;-58
2021/04/15 00:26:49;;;;;;;0.20;0.20;;;;;;;;;;5053589;28;20071;-56
2021/04/15 00:29:16;;;;;;;0.22;0.22;;;;;;;;;;5050706;28;20457;-57
2021/04/15 00:31:42;;;;;;;0.20;0.20;;;;;;;;;;5068478;28;20025;-57
2021/04/15 00:34:08;;;;;;;0.20;0.20;;;;;;;;;;5059258;28;20095;-56
2021/04/15 00:36:34;;;;;;;0.20;0.20;;;;;;;;;;5056363;28;20443;-55
2021/04/15 00:39:00;;;;;;;0.20;0.20;;;;;;;;;;5054968;28;20398;-57
2021/04/15 00:41:26;;;;;;;0.35;0.35;;;;;;;;;;5050548;28;20116;-57
2021/04/15 00:43:53;;;;;;;0.30;0.30;;;;;;;;;;5069093;28;20048;-56
2021/04/15 00:46:39;;;;;;;0.20;0.20;;;;;;;;;;5058016;28;20376;-57
2021/04/15 00:49:06;;;;;;;0.40;0.40;;;;;;;;;;5055659;28;20132;-56
2021/04/15 00:51:48;;;;;;;0.30;0.30;;;;;;;;;;5056051;28;20033;-58
2021/04/15 00:54:27;;;;;;;0.40;0.40;;;;;;;;;;5055749;28;20505;-57
2021/04/15 00:56:53;;;;;;;0.30;0.30;;;;;;;;;;5053448;28;20029;-59
2021/04/15 00:59:20;;;;;;;0.35;0.35;;;;;;;;;;5050467;28;20091;-56
2021/04/15 01:01:46;;;;;;;0.30;0.30;;;;;;;;;;5054364;28;20104;-56
2021/04/15 01:04:12;;;;;;;0.20;0.20;;;;;;;;;;5055114;28;20041;-57
2021/04/15 01:06:38;;;;;;;0.30;0.30;;;;;;;;;;5055264;28;20021;-53
2021/04/15 01:09:04;;;;;;;0.20;0.20;;;;;;;;;;5054251;28;20028;-58
2021/04/15 01:11:44;;;;;;;0.20;0.20;;;;;;;;;;5050710;28;20029;-58
2021/04/15 01:14:22;;;;;;;0.20;0.20;;;;;;;;;;5057427;28;20056;-57
2021/04/15 01:16:48;;;;;;;0.40;0.40;;;;;;;;;;5053059;28;20177;-56
2021/04/15 01:19:27;;;;;;;0.30;0.30;;;;;;;;;;5051915;28;20029;-56
2021/04/15 01:22:00;;;;;;;0.20;0.20;;;;;;;;;;5051394;28;20474;-56
2021/04/15 01:24:26;;;;;;;0.20;0.20;;;;;;;;;;5049962;28;20098;-58
2021/04/15 01:26:52;;;;;;;0.20;0.20;;;;;;;;;;5051591;28;20031;-57
2021/04/15 01:29:24;;;;;;;0.30;0.30;;;;;;;;;;5052191;28;20048;-55
2021/04/15 01:32:09;;;;;;;0.28;0.28;;;;;;;;;;5050921;28;20029;-56
2021/04/15 01:34:50;;;;;;;0.30;0.30;;;;;;;;;;5051737;28;20482;-57
2021/04/15 01:37:22;;;;;;;0.30;0.30;;;;;;;;;;5051359;28;20354;-57
2021/04/15 01:39:51;;;;;;;0.30;0.30;;;;;;;;;;5051307;28;20021;-56
2021/04/15 01:42:20;;;;;;;0.30;0.30;;;;;;;;;;5051136;28;20094;-56
2021/04/15 01:44:46;;;;;;;0.22;0.22;;;;;;;;;;5051366;28;20490;-55
2021/04/15 01:47:24;;;;;;;0.28;0.28;;;;;;;;;;5052328;28;20064;-57
2021/04/15 01:49:54;;;;;;;0.20;0.20;;;;;;;;;;5050977;28;20047;-57
2021/04/15 01:52:20;;;;;;;0.32;0.32;;;;;;;;;;5051113;28;20033;-56
2021/04/15 01:55:00;;;;;;;0.30;0.30;;;;;;;;;;5050986;28;20021;-57
2021/04/15 01:57:26;;;;;;;0.20;0.20;;;;;;;;;;5051058;28;20035;-57
2021/04/15 02:00:01;;;;;;;0.30;0.30;;;;;;;;;;5051069;28;20025;-59
2021/04/15 02:02:46;;;;;;;0.30;0.30;;;;;;;;;;5051362;28;20060;-56
2021/04/15 02:05:38;;;;;;;0.30;0.30;;;;;;;;;;5049146;28;20072;-57
2021/04/15 02:08:04;;;;;;;0.40;0.40;;;;;;;;;;5050501;28;20052;-57
2021/04/15 02:10:32;;;;;;;0.30;0.30;;;;;;;;;;5050694;28;20456;-56
2021/04/15 02:13:00;;;;;;;0.38;0.38;;;;;;;;;;5050517;28;20135;-54
2021/04/15 02:15:31;;;;;;;0.30;0.30;;;;;;;;;;5050273;28;20029;-56
2021/04/15 02:18:03;;;;;;;0.40;0.40;;;;;;;;;;5050662;28;20071;-58
2021/04/15 02:20:29;;;;;;;0.40;0.40;;;;;;;;;;5050612;28;20063;-57
2021/04/15 02:23:01;;;;;;;0.30;0.30;;;;;;;;;;5052117;28;20051;-56
2021/04/15 02:25:31;;;;;;;0.30;0.30;;;;;;;;;;5049847;28;20025;-56
2021/04/15 02:28:06;;;;;;;0.40;0.40;;;;;;;;;;5050308;28;20029;-57
2021/04/15 02:30:35;;;;;;;0.30;0.30;;;;;;;;;;5050160;28;20036;-56
2021/04/15 02:33:31;;;;;;;0.20;0.20;;;;;;;;;;5050356;28;20142;-58
2021/04/15 02:36:00;;;;;;;0.30;0.30;;;;;;;;;;5024437;28;20453;-56
2021/04/15 02:38:31;;;;;;;0.30;0.30;;;;;;;;;;5050144;28;20036;-57
2021/04/15 02:41:00;;;;;;;0.30;0.30;;;;;;;;;;5051934;28;20025;-53
2021/04/15 02:43:35;;;;;;;0.40;0.40;;;;;;;;;;5048453;28;20136;-55
2021/04/15 02:46:01;;;;;;;;;;;;;;;;;;5050527;28;20035;-56
2021/04/15 02:48:29;;;;;;;0.30;0.30;;;;;;;;;;5048575;28;19908;-56
2021/04/15 02:51:02;;;;;;;0.20;0.20;;;;;;;;;;5050142;28;20502;-57
2021/04/15 02:53:32;;;;;;;0.22;0.22;;;;;;;;;;5049900;28;20040;-53
2021/04/15 02:56:01;;;;;;;0.30;0.30;;;;;;;;;;5051456;28;20113;-55
2021/04/15 02:58:36;;;;;;;0.30;0.30;;;;;;;;;;5049248;28;20041;-59
2021/04/15 03:01:02;;;;;;;0.30;0.30;;;;;;;;;;5049667;28;20032;-55
2021/04/15 03:03:33;;;;;;;0.20;0.20;;;;;;;;;;5049421;28;20072;-55
2021/04/15 03:06:15;;;;;;;0.88;0.88;;;;;;;;;;5049561;28;20029;-55
2021/04/15 03:08:42;;;;;;;0.32;0.32;;;;;;;;;;5034126;28;20531;-56
2021/04/15 03:11:11;;;;;;;0.38;0.38;;;;;;;;;;5051611;28;20021;-55
2021/04/15 03:13:41;;;;;;;0.30;0.30;;;;;;;;;;5049143;28;20130;-57
2021/04/15 03:16:07;;;;;;;0.30;0.30;;;;;;;;;;5049706;28;20032;-54
2021/04/15 03:18:52;;;;;;;0.30;0.30;;;;;;;;;;5049524;28;20033;-55
2021/04/15 03:21:20;;;;;;;0.38;0.38;;;;;;;;;;5047809;28;20029;-56
2021/04/15 03:23:46;;;;;;;0.20;0.20;;;;;;;;;;5049455;28;20029;-55
2021/04/15 03:26:20;;;;;;;0.22;0.22;;;;;;;;;;5050893;28;20399;-58
2021/04/15 03:28:53;;;;;;;0.20;0.20;;;;;;;;;;5050199;28;20079;-54
2021/04/15 03:31:23;;;;;;;0.30;0.30;;;;;;;;;;5049399;28;20441;-54
2021/04/15 03:33:53;;;;;;;0.30;0.30;;;;;;;;;;5049136;28;20086;-52
2021/04/15 03:36:23;;;;;;;0.22;0.22;;;;;;;;;;5049294;28;20087;-57
2021/04/15 03:38:56;;;;;;;4.25;1.00;;;;;;;;;;5049042;28;20035;-57
2021/04/15 03:41:29;;;;;;;0.30;0.30;;;;;;;;;;5049758;28;20510;-57
2021/04/15 03:44:04;;;;;;;0.30;0.30;;;;;;;;;;5049103;28;20816;-56
2021/04/15 03:46:30;;;;;;;;;;;;;;;;;;5049451;28;20434;-56
2021/04/15 03:49:26;;;;;;;0.30;0.30;;;;;;;;;;5048889;28;19909;-57
2021/04/15 03:51:57;;;;;;;0.20;0.20;;;;;;;;;;5044564;28;20032;-53
2021/04/15 03:54:26;;;;;;;0.30;0.30;;;;;;;;;;5049054;28;20039;-53
2021/04/15 03:56:55;;;;;;;0.40;0.40;;;;;;;;;;5048996;28;20039;-54
2021/04/15 03:59:26;;;;;;;0.20;0.20;;;;;;;;;;5049857;28;20113;-53
2021/04/15 04:01:55;;;;;;;0.30;0.30;;;;;;;;;;5049029;28;20021;-55
2021/04/15 04:04:24;;;;;;;0.20;0.20;;;;;;;;;;5048880;28;20506;-56
2021/04/15 04:06:51;;;;;;;0.30;0.30;;;;;;;;;;5047206;28;20100;-55
2021/04/15 04:09:23;;;;;;;0.30;0.30;;;;;;;;;;5048920;28;20127;-56
2021/04/15 04:11:52;;;;;;;0.30;0.30;;;;;;;;;;5048335;28;20017;-54
2021/04/15 04:14:41;;;;;;;0.30;0.30;;;;;;;;;;5049831;28;20572;-54
2021/04/15 04:17:14;;;;;;;0.30;0.30;;;;;;;;;;5045805;28;20049;-58
2021/04/15 04:19:46;;;;;;;0.30;0.30;;;;;;;;;;5047760;28;20029;-55
2021/04/15 04:22:28;;;;;;;0.30;0.30;;;;;;;;;;5048600;28;20029;-56
2021/04/15 04:24:59;;;;;;;0.32;0.32;;;;;;;;;;5048499;28;20033;-53
2021/04/15 04:27:32;;;;;;;0.20;0.20;;;;;;;;;;5048365;28;20031;-54
2021/04/15 04:30:08;;;;;;;0.40;0.40;;;;;;;;;;5048822;28;20040;-55
2021/04/15 04:32:34;;;;;;;;;;;;;;;;;;5048953;28;20021;-54
2021/04/15 04:35:01;;;;;;;0.30;0.30;;;;;;;;;;5050572;28;20517;-55
2021/04/15 04:37:37;;;;;;;0.35;0.35;;;;;;;;;;5048739;28;20059;-56
2021/04/15 04:40:05;;;;;;;0.35;0.35;;;;;;;;;;5046890;28;20029;-54
2021/04/15 04:42:40;;;;;;;0.30;0.30;;;;;;;;;;5047442;28;20040;-56
2021/04/15 04:45:08;;;;;;;;;;;;;;;;;;5049035;28;20065;-57
2021/04/15 04:47:49;;;;;;;0.20;0.20;;;;;;;;;;5048593;28;19905;-55
2021/04/15 04:50:21;;;;;;;0.50;0.50;;;;;;;;;;5048740;28;20487;-55
2021/04/15 04:52:48;;;;;;;0.40;0.40;;;;;;;;;;5053608;28;20033;-56
2021/04/15 04:55:23;;;;;;;0.30;0.30;;;;;;;;;;5051794;28;20045;-55
2021/04/15 04:57:50;;;;;;;0.30;0.30;;;;;;;;;;5051905;28;20029;-55
2021/04/15 05:00:18;;;;;;;0.30;0.30;;;;;;;;;;5058262;28;20520;-57
2021/04/15 05:02:44;;;;;;;0.20;0.20;;;;;;;;;;5057052;28;20025;-57
2021/04/15 05:05:18;;;;;;;0.30;0.30;;;;;;;;;;5054648;28;20032;-57
2021/04/15 05:07:45;;;;;;;0.30;0.30;;;;;;;;;;5052097;28;20037;-54
2021/04/15 05:10:15;;;;;;;0.30;0.30;;;;;;;;;;5049702;28;20025;-56
2021/04/15 05:12:42;;;;;;;0.40;0.40;;;;;;;;;;5052472;28;20017;-55
2021/04/15 05:15:08;;;;;;;0.30;0.30;;;;;;;;;;5052615;28;20021;-56
2021/04/15 05:17:36;;;;;;;0.20;0.20;;;;;;;;;;5052751;28;20021;-56
2021/04/15 05:20:07;;;;;;;0.30;0.30;;;;;;;;;;5053201;28;20403;-53
2021/04/15 05:22:38;;;;;;;0.30;0.30;;;;;;;;;;5052312;28;20036;-55
2021/04/15 05:25:07;;;;;;;0.25;0.25;;;;;;;;;;5051993;28;20028;-55
2021/04/15 05:27:34;;;;;;;0.28;0.28;;;;;;;;;;5052522;28;20090;-53
2021/04/15 05:30:04;;;;;;;0.30;0.30;;;;;;;;;;5052185;28;20029;-56
2021/04/15 05:32:31;;;;;;;0.65;0.65;;;;;;;;;;5051969;28;20403;-53
2021/04/15 05:34:59;;;;;;;0.35;0.35;;;;;;;;;;5053092;28;20021;-52
2021/04/15 05:37:26;;;;;;;0.30;0.30;;;;;;;;;;5051638;28;20025;-52
2021/04/15 05:39:52;;;;;;;0.30;0.30;;;;;;;;;;5046230;28;20496;-53
2021/04/15 05:42:23;;;;;;;0.20;0.20;;;;;;;;;;5041534;28;20038;-52
2021/04/15 05:44:50;;;;;;;0.50;0.50;;;;;;;;;;5052360;28;20021;-54
2021/04/15 05:47:22;;;;;;;0.30;0.30;;;;;;;;;;5052487;28;20017;-52
2021/04/15 05:49:52;;;;;;;0.20;0.20;;;;;;;;;;5052355;28;20410;-56
2021/04/15 05:52:25;;;;;;;0.40;0.40;;;;;;;;;;5051429;28;20036;-51
2021/04/15 05:54:52;;;;;;;0.30;0.30;;;;;;;;;;5051694;28;20418;-57
2021/04/15 05:57:21;;;;;;;0.20;0.20;;;;;;;;;;5050684;28;20039;-56
2021/04/15 05:59:54;;;;;;;3.40;0.95;;;;;;;;;;5046541;28;20032;-56
2021/04/15 06:02:43;;;;;;;0.30;0.30;;;;;;;;;;5048707;28;20048;-54
2021/04/15 06:05:09;;;;;;;0.65;0.43;;;;;;;;;;5048490;28;20060;-56
2021/04/15 06:07:37;;;;;;;0.30;0.30;;;;;;;;;;5050681;28;20112;-55
2021/04/15 06:10:04;;;;;;;0.38;0.38;;;;;;;;;;5050165;28;20150;-56
2021/04/15 06:12:30;;;;;;;0.28;0.28;;;;;;;;;;5050679;28;20437;-54
2021/04/15 06:15:02;;;;;;;0.30;0.30;;;;;;;;;;5050492;28;20110;-53
2021/04/15 06:17:37;;;;;;;0.47;0.47;;;;;;;;;;5045199;28;20116;-55
2021/04/15 06:20:06;;;;;;;0.20;0.20;;;;;;;;;;5048661;28;20488;-54
2021/04/15 06:22:33;;;;;;;0.43;0.43;;;;;;;;;;5050319;28;20041;-57
2021/04/15 06:25:04;;;;;;;0.60;0.60;;;;;;;;;;5050165;28;20554;-55
2021/04/15 06:27:31;;;;;;;0.20;0.20;;;;;;;;;;5049545;28;20491;-54
2021/04/15 06:29:57;;;;;;;0.30;0.30;;;;;;;;;;5050148;28;20060;-56
2021/04/15 06:32:46;;;;;;;0.28;0.28;;;;;;;;;;5049726;28;20442;-56
2021/04/15 06:35:23;;;;;;;0.30;0.30;;;;;;;;;;5041604;28;20044;-55
2021/04/15 06:38:00;;;;;;;0.20;0.20;;;;;;;;;;5050499;28;20079;-56
2021/04/15 06:40:35;;;;;;;0.20;0.20;;;;;;;;;;5048827;28;20032;-53
2021/04/15 06:43:20;;;;;;;0.30;0.30;;;;;;;;;;5039577;28;20068;-57
2021/04/15 06:46:04;;;;;;;0.20;0.20;;;;;;;;;;5048220;28;20402;-55
2021/04/15 06:48:51;;;;;;;0.93;0.90;;;;;;;;;;5048730;28;20085;-54
2021/04/15 06:51:36;;;;;;;0.25;0.25;;;;;;;;;;5046827;28;20025;-56
2021/04/15 06:54:08;;;;;;;0.22;0.22;;;;;;;;;;5046531;28;20029;-52
2021/04/15 06:56:46;;;;;;;1.30;0.40;;;;;;;;;;5047848;28;20099;-55
2021/04/15 06:59:33;;;;;;;0.20;0.20;;;;;;;;;;5048972;28;20398;-55
2021/04/15 07:02:12;;;;;;;0.45;0.20;;;;;;;;;;4991848;28;20030;-56
2021/04/15 07:04:48;;;;;;;0.10;0.10;;;;;;;;;;4991024;28;20052;-53
2021/04/15 07:07:14;;;;;;;;;;;;;;;;;;4990818;28;20046;-53
2021/04/15 07:09:40;;;;;;;;;;;;;;;;;;4991471;28;20446;-58
2021/04/15 07:12:25;;;;;;;0.40;0.40;;;;;;;;;;4987342;28;19996;-57
2021/04/15 07:14:53;;;;;;;0.28;0.28;;;;;;;;;;4987132;28;20055;-55
2021/04/15 07:17:32;;;;;;;0.10;0.10;;;;;;;;;;4988371;28;20026;-57
2021/04/15 07:20:09;;;;;;;0.20;0.20;;;;;;;;;;4994859;28;20046;-56
2021/04/15 07:22:48;;;;;;;0.57;0.57;;;;;;;;;;4993207;28;20041;-55
2021/04/15 07:25:14;;;;;;;0.10;0.10;;;;;;;;;;4985544;28;20049;-54
2021/04/15 07:28:00;;;;;;;0.10;0.10;;;;;;;;;;4988685;28;20072;-55
2021/04/15 07:30:30;;;;;;;2.70;0.70;;;;;;;;;;4989348;28;20464;-56
2021/04/15 07:32:56;;;;;;;0.40;0.40;;;;;;;;;;4994040;28;20081;-56
2021/04/15 07:35:34;;;;;;;0.20;0.20;;;;;;;;;;4992883;28;20495;-54
2021/04/15 07:38:19;;;;;;;0.38;0.20;;;;;;;;;;4993339;28;20034;-55
2021/04/15 07:41:04;;;;;;;0.20;0.20;;;;;;;;;;5047735;28;20553;-55
2021/04/15 07:43:45;;;;;;;0.20;0.20;;;;;;;;;;5047435;28;20029;-56
2021/04/15 07:46:14;;;;;;;0.22;0.22;;;;;;;;;;5046601;28;20133;-57
2021/04/15 07:48:41;;;;;;;6.32;1.05;;;;;;;;;;5044490;28;20021;-52
2021/04/15 07:51:07;;;;;;;2.33;1.10;;;;;;;;;;5044439;28;20030;-55
2021/04/15 07:53:39;;;;;;;0.30;0.30;;;;;;;;;;5047189;28;20084;-55
2021/04/15 07:56:25;;;;;;;0.40;0.40;;;;;;;;;;5044672;28;20063;-56
2021/04/15 07:58:52;;;;;;;2.40;1.10;;;;;;;;;;5043912;28;20069;-56
2021/04/15 08:01:21;;;;;;;3.88;2.05;;;;;;;;;;5046744;28;20074;-57
2021/04/15 08:04:06;;;;;;;0.20;0.20;;;;;;;;;;5048077;28;20037;-55
2021/04/15 08:06:41;;;;;;;0.30;0.30;;;;;;;;;;5048559;28;20394;-56
2021/04/15 08:09:10;;;;;;;0.57;0.50;;;;;;;;;;5046523;28;20044;-56
2021/04/15 08:11:48;;;;;;;1.98;0.68;;;;;;;;;;5045318;28;20033;-54
2021/04/15 08:14:20;;;;;;;0.20;0.20;;;;;;;;;;5045696;28;20630;-57
2021/04/15 08:17:07;;;;;;;5.82;0.40;;;;;;;;;;5049053;28;20025;-56
2021/04/15 08:19:51;;;;;;;0.40;0.40;;;;;;;;;;5045888;28;20549;-54
2021/04/15 08:22:28;;;;;;;0.47;0.47;;;;;;;;;;5047367;28;20723;-55
2021/04/15 08:25:17;;;;;;;0.85;0.85;;;;;;;;;;5049267;28;20544;-56
2021/04/15 08:28:02;;;;;;;0.43;0.43;;;;;;;;;;5050105;28;20025;-55
2021/04/15 08:30:43;;;;;;;0.13;0.13;;;;;;;;;;5050636;28;20048;-55
2021/04/15 08:33:12;;;;;;;0.15;0.15;;;;;;;;;;5052152;28;20489;-55
2021/04/15 08:35:53;;;;;;;0.10;0.10;;;;;;;;;;5043775;28;20032;-52
2021/04/15 08:38:22;;;;;;;0.20;0.20;;;;;;;;;;5050352;28;20028;-53
2021/04/15 08:41:15;;;;;;;0.30;0.30;;;;;;;;;;5062734;28;20399;-56
2021/04/15 08:43:53;;;;;;;0.20;0.20;;;;;;;;;;5047680;28;20109;-53
2021/04/15 08:46:31;;;;;;;0.20;0.20;;;;;;;;;;5042012;28;20068;-55
2021/04/15 08:49:09;;;;;;;0.20;0.20;;;;;;;;;;5041263;28;20087;-56
2021/04/15 08:51:53;;;;;;;1.67;1.23;;;;;;;;;;5044211;28;20021;-56
2021/04/15 08:54:25;;;;;;;0.38;0.38;;;;;;;;;;5052395;28;20033;-55
2021/04/15 08:56:54;;;;;;;0.47;0.47;;;;;;;;;;5051055;28;20191;-59
2021/04/15 08:59:27;;;;;;;1.73;0.60;;;;;;;;;;5051670;28;20071;-59
2021/04/15 09:02:05;;;;;;;0.40;0.40;;;;;;;;;;5051496;28;20082;-59
2021/04/15 09:04:37;;;;;;;0.10;0.10;;;;;;;;;;5042248;28;20545;-56
2021/04/15 09:07:13;;;;;;;0.55;0.55;;;;;;;;;;5045362;28;20131;-58
2021/04/15 09:09:49;;;;;;;0.40;0.40;;;;;;;;;;5044595;28;20029;-57
2021/04/15 09:12:21;;;;;;;2.45;1.10;;;;;;;;;;5045314;28;20032;-59
2021/04/15 09:14:53;;;;;;;0.52;0.52;;;;;;;;;;5045952;28;20032;-58
2021/04/15 09:17:34;;;;;;;0.65;0.60;;;;;;;;;;5045959;28;20703;-60
2021/04/15 09:20:10;;;;;;;0.65;0.63;;;;;;;;;;5047731;28;20122;-58
2021/04/15 09:22:36;;;;;;;0.20;0.20;;;;;;;;;;5045741;28;20120;-60
2021/04/15 09:25:09;;;;;;;2.53;0.98;;;;;;;;;;5043197;28;20017;-58
2021/04/15 09:27:54;;;;;;;0.73;0.73;;;;;;;;;;5043031;28;20383;-60
2021/04/15 09:30:20;;;;;;;0.30;0.30;;;;;;;;;;5044605;28;20028;-59
2021/04/15 09:33:03;;;;;;;5.78;1.15;;;;;;;;;;5046045;28;20029;-58
2021/04/15 09:35:29;;;;;;;1.80;0.50;;;;;;;;;;5042835;28;20029;-59
2021/04/15 09:37:55;;;;;;;1.33;1.30;;;;;;;;;;5039881;28;20055;-59
2021/04/15 09:40:40;;;;;;;0.25;0.25;;;;;;;;;;5042603;28;20039;-57
2021/04/15 09:43:25;;;;;;;0.57;0.35;;;;;;;;;;5044489;28;20275;-59
2021/04/15 09:46:06;;;;;;;0.70;0.50;;;;;;;;;;5045324;28;20040;-58
2021/04/15 09:48:46;;;;;;;0.30;0.30;;;;;;;;;;5044840;28;20025;-58
2021/04/15 09:51:15;;;;;;;1.75;0.63;;;;;;;;;;5045922;28;20021;-58
2021/04/15 09:53:52;;;;;;;1.00;1.00;;;;;;;;;;5043013;28;20029;-58
2021/04/15 09:56:31;;;;;;;0.20;0.20;;;;;;;;;;5045236;28;20132;-59
2021/04/15 09:59:06;;;;;;;0.22;0.22;;;;;;;;;;5043423;28;20033;-59
2021/04/15 10:01:37;;;;;;;0.10;0.10;;;;;;;;;;5043563;28;20076;-57
2021/04/15 10:04:09;;;;;;;0.52;0.52;;;;;;;;;;5043142;28;20094;-60
2021/04/15 10:06:37;;;;;;;1.10;0.20;;;;;;;;;;5044197;28;20033;-60
2021/04/15 10:09:08;;;;;;;0.13;0.13;;;;;;;;;;5043905;28;20036;-59
2021/04/15 10:11:53;;;;;;;0.65;0.40;;;;;;;;;;5043935;28;20138;-59
2021/04/15 10:14:38;;;;;;;0.93;0.60;;;;;;;;;;5046071;28;20060;-59
2021/04/15 10:17:16;;;;;;;0.10;0.10;;;;;;;;;;5050715;28;20029;-59
2021/04/15 10:20:01;;;;;;;0.25;0.25;;;;;;;;;;5047744;28;20111;-59
2021/04/15 10:22:46;;;;;;;0.10;0.10;;;;;;;;;;5039723;28;20041;-59
2021/04/15 10:25:12;;;;;;;1.75;0.43;;;;;;;;;;5039372;28;20034;-59
2021/04/15 10:27:38;;;;;;;0.75;0.20;;;;;;;;;;5038968;28;20030;-58
2021/04/15 10:30:07;;;;;;;1.25;1.15;;;;;;;;;;5038298;28;20372;-59
2021/04/15 10:32:33;;;;;;;0.20;0.20;;;;;;;;;;5050099;28;20108;-59
2021/04/15 10:35:14;;;;;;;0.38;0.30;;;;;;;;;;5045482;28;20024;-59
2021/04/15 10:37:58;;;;;;;0.75;0.57;;;;;;;;;;5038457;28;20026;-59
2021/04/15 10:40:27;;;;;;;0.38;0.38;;;;;;;;;;5048605;28;20051;-59
2021/04/15 10:42:53;;;;;;;0.63;0.30;;;;;;;;;;5046860;28;20295;-59
2021/04/15 10:45:19;;;;;;;0.22;0.22;;;;;;;;;;5043776;28;20025;-57
2021/04/15 10:48:01;;;;;;;0.17;0.17;;;;;;;;;;5045060;28;20427;-59
2021/04/15 10:50:46;;;;;;;0.47;0.30;;;;;;;;;;5058730;28;20037;-59
2021/04/15 10:53:12;;;;;;;0.10;0.10;;;;;;;;;;5046092;28;20037;-59
2021/04/15 10:55:43;;;;;;;0.40;0.40;;;;;;;;;;5043398;28;20120;-59
2021/04/15 10:58:28;;;;;;;0.20;0.20;;;;;;;;;;5045620;28;20570;-58
2021/04/15 11:00:55;;;;;;;0.13;0.13;;;;;;;;;;5041362;28;20028;-59
2021/04/15 11:03:26;;;;;;;0.30;0.30;;;;;;;;;;5045129;28;20052;-58
2021/04/15 11:05:56;;;;;;;0.20;0.20;;;;;;;;;;5044412;28;20032;-58
2021/04/15 11:08:22;;;;;;;0.28;0.28;;;;;;;;;;5044757;28;20029;-59
2021/04/15 11:10:48;;;;;;;0.32;0.20;;;;;;;;;;5045476;28;20146;-59
2021/04/15 11:13:14;;;;;;;0.45;0.43;;;;;;;;;;5044997;28;20056;-59
2021/04/15 11:15:51;;;;;;;0.10;0.10;;;;;;;;;;5044208;28;20120;-58
2021/04/15 11:18:38;;;;;;;0.10;0.10;;;;;;;;;;5043486;28;20175;-59
2021/04/15 11:21:13;;;;;;;0.50;0.50;;;;;;;;;;5042416;28;20032;-58
2021/04/15 11:23:39;;;;;;;0.15;0.15;;;;;;;;;;5043496;28;20404;-59
2021/04/15 11:26:16;;;;;;;0.30;0.30;;;;;;;;;;5047094;28;20025;-59
2021/04/15 11:28:42;;;;;;;0.10;0.10;;;;;;;;;;5048881;28;20021;-58
2021/04/15 11:31:11;;;;;;;0.50;0.50;;;;;;;;;;5048562;28;20137;-59
2021/04/15 11:33:51;;;;;;;0.10;0.10;;;;;;;;;;5045783;28;20052;-59
2021/04/15 11:36:19;;;;;;;0.10;0.10;;;;;;;;;;5046670;28;20017;-58
2021/04/15 11:38:48;;;;;;;0.20;0.20;;;;;;;;;;5038726;28;20459;-59
2021/04/15 11:41:14;;;;;;;0.10;0.10;;;;;;;;;;5046697;28;20025;-59
2021/04/15 11:43:41;;;;;;;0.22;0.22;;;;;;;;;;5047937;28;20438;-60
2021/04/15 11:46:12;;;;;;;0.20;0.20;;;;;;;;;;5046712;28;20025;-60
2021/04/15 11:48:39;;;;;;;0.10;0.10;;;;;;;;;;5047862;28;20029;-59
2021/04/15 11:51:11;;;;;;;0.47;0.47;;;;;;;;;;5045715;28;20032;-58
2021/04/15 11:53:42;;;;;;;2.13;0.65;;;;;;;;;;5047789;28;20033;-59
2021/04/15 11:56:16;;;;;;;0.10;0.10;;;;;;;;;;5045079;28;20112;-59
2021/04/15 11:58:42;;;;;;;0.30;0.30;;;;;;;;;;5047996;28;20071;-58
2021/04/15 12:01:08;;;;;;;0.20;0.20;;;;;;;;;;5046517;28;20040;-59
2021/04/15 12:03:34;;;;;;;0.68;0.68;;;;;;;;;;5045995;28;20124;-58
2021/04/15 12:06:07;;;;;;;0.82;0.82;;;;;;;;;;5047428;28;20025;-59
2021/04/15 12:08:34;;;;;;;1.65;0.30;;;;;;;;;;5045357;28;20036;-59
2021/04/15 12:11:12;;;;;;;3.55;0.73;;;;;;;;;;5045862;28;20074;-60
2021/04/15 12:13:44;;;;;;;0.95;0.50;;;;;;;;;;5046822;28;20449;-60
2021/04/15 12:16:11;;;;;;;0.75;0.52;;;;;;;;;;5047391;28;20379;-60
2021/04/15 12:18:47;;;;;;;0.10;0.10;;;;;;;;;;5058650;22;20049;-59
2021/04/15 12:21:20;;;;;;;0.65;0.65;;;;;;;;;;5064424;28;20502;-65
2021/04/15 12:23:51;;;;;;;0.95;0.40;;;;;;;;;;5066167;28;20052;-60
2021/04/15 12:26:17;;;;;;;0.55;0.55;;;;;;;;;;5068790;28;20032;-57
2021/04/15 12:28:45;;;;;;;0.25;0.25;;;;;;;;;;5065771;28;20028;-72
2021/04/15 12:31:26;;;;;;;0.30;0.30;;;;;;;;;;5066045;28;20023;-66
2021/04/15 12:34:04;;;;;;;0.45;0.45;;;;;;;;;;5064439;28;20452;-64
2021/04/15 12:36:31;;;;;;;0.30;0.30;;;;;;;;;;5064528;28;20033;-69
2021/04/15 12:38:59;;;;;;;0.30;0.25;;;;;;;;;;5050932;28;20031;-59
2021/04/15 12:41:26;;;;;;;0.38;0.38;;;;;;;;;;5068364;28;20445;-69
2021/04/15 12:43:54;;;;;;;0.10;0.10;;;;;;;;;;5064695;28;20111;-57
2021/04/15 12:46:21;;;;;;;0.30;0.30;;;;;;;;;;5065729;28;20048;-57
2021/04/15 12:48:50;;;;;;;2.47;0.52;;;;;;;;;;5062663;28;20028;-66
2021/04/15 12:51:25;;;;;;;0.35;0.35;;;;;;;;;;5063984;28;20037;-58
2021/04/15 12:53:52;;;;;;;1.33;0.95;;;;;;;;;;5066793;28;20029;-58
2021/04/15 12:56:20;;;;;;;2.35;2.25;;;;;;;;;;5050083;28;20724;-58
2021/04/15 12:58:46;;;;;;;0.75;0.75;;;;;;;;;;5067554;28;20050;-58
2021/04/15 13:01:13;;;;;;;0.30;0.30;;;;;;;;;;5067424;28;20028;-58
2021/04/15 13:03:41;;;;;;;0.85;0.52;;;;;;;;;;5067329;28;20497;-58
2021/04/15 13:06:07;;;;;;;0.30;0.30;;;;;;;;;;5067435;28;20021;-58
2021/04/15 13:08:44;;;;;;;1.10;1.00;;;;;;;;;;5065463;28;20056;-58
2021/04/15 13:11:16;;;;;;;0.10;0.10;;;;;;;;;;5070615;28;20095;-59
2021/04/15 13:13:42;;;;;;;0.77;0.50;;;;;;;;;;5071641;28;20044;-59
2021/04/15 13:16:27;;;;;;;0.73;0.73;;;;;;;;;;5068737;28;20028;-57
2021/04/15 13:18:53;;;;;;;1.05;1.00;;;;;;;;;;5053664;28;20526;-59
2021/04/15 13:21:27;;;;;;;0.30;0.30;;;;;;;;;;5050866;28;20035;-58
2021/04/15 13:23:53;;;;;;;0.93;0.85;;;;;;;;;;5050218;28;20067;-59
2021/04/15 13:26:22;;;;;;;0.40;0.40;;;;;;;;;;5049967;28;20486;-60
2021/04/15 13:28:48;;;;;;;0.52;0.43;;;;;;;;;;5052221;28;20028;-59
2021/04/15 13:31:32;;;;;;;0.45;0.45;;;;;;;;;;5046442;28;20402;-58
2021/04/15 13:34:05;;;;;;;0.15;0.15;;;;;;;;;;5051436;28;20035;-58
2021/04/15 13:36:32;;;;;;;0.38;0.25;;;;;;;;;;5049758;28;20490;-61
2021/04/15 13:38:59;;;;;;;0.30;0.30;;;;;;;;;;5048422;28;20029;-68
2021/04/15 13:41:27;;;;;;;1.20;0.80;;;;;;;;;;5050479;28;20020;-65
2021/04/15 13:43:58;;;;;;;0.95;0.90;;;;;;;;;;5050785;28;20427;-68
2021/04/15 13:46:25;;;;;;;0.40;0.40;;;;;;;;;;5048797;28;20036;-64
2021/04/15 13:48:57;;;;;;;0.57;0.57;;;;;;;;;;5050637;28;20110;-65
2021/04/15 13:51:28;;;;;;;2.10;1.05;;;;;;;;;;5047906;28;20542;-63
2021/04/15 13:53:56;;;;;;;1.63;1.25;;;;;;;;;;5050552;28;20028;-63
2021/04/15 13:56:34;;;;;;;1.35;1.25;;;;;;;;;;5048694;28;20029;-65
2021/04/15 13:59:00;;;;;;;0.30;0.30;;;;;;;;;;5051611;28;20108;-65
2021/04/15 14:01:34;;;;;;;0.50;0.50;;;;;;;;;;5050417;28;20035;-65
2021/04/15 14:04:01;;;;;;;0.22;0.22;;;;;;;;;;5049750;28;20041;-65
2021/04/15 14:06:28;;;;;;;1.55;0.77;;;;;;;;;;5050347;28;20055;-64
2021/04/15 14:09:12;;;;;;;0.73;0.50;;;;;;;;;;5049559;28;20434;-66
2021/04/15 14:11:42;;;;;;;1.85;0.70;;;;;;;;;;5050515;28;20502;-65
2021/04/15 14:14:27;;;;;;;1.33;0.70;;;;;;;;;;5051097;28;20147;-60
2021/04/15 14:16:55;;;;;;;0.32;0.32;;;;;;;;;;5051116;28;20021;-65
2021/04/15 14:19:30;;;;;;;0.68;0.68;;;;;;;;;;5058706;28;20135;-64
2021/04/15 14:21:56;;;;;;;0.10;0.10;;;;;;;;;;5068805;28;20031;-62
2021/04/15 14:24:26;;;;;;;2.42;1.15;;;;;;;;;;5070033;28;20123;-65
2021/04/15 14:26:53;;;;;;;1.95;0.90;;;;;;;;;;5070018;28;20035;-65
2021/04/15 14:29:22;;;;;;;0.75;0.75;;;;;;;;;;5070037;28;20432;-65
2021/04/15 14:32:09;;;;;;;0.60;0.60;;;;;;;;;;5070263;28;20024;-63
2021/04/15 14:34:36;;;;;;;0.20;0.20;;;;;;;;;;5050282;28;20040;-66
2021/04/15 14:37:04;;;;;;;0.52;0.28;;;;;;;;;;5069828;28;20032;-65
2021/04/15 14:39:30;;;;;;;0.52;0.52;;;;;;;;;;5068598;28;20020;-65
2021/04/15 14:41:59;;;;;;;2.30;0.60;;;;;;;;;;5051110;28;20016;-64
2021/04/15 14:44:26;;;;;;;0.73;0.73;;;;;;;;;;5057829;28;20036;-64
2021/04/15 14:46:52;;;;;;;1.30;1.20;;;;;;;;;;5067232;28;20464;-67
2021/04/15 14:49:25;;;;;;;0.63;0.38;;;;;;;;;;5065643;28;20438;-65
2021/04/15 14:51:52;;;;;;;0.28;0.28;;;;;;;;;;5065796;28;20064;-63
2021/04/15 14:54:18;;;;;;;14.50;1.25;;;;;;;;;;5065507;28;20032;-64
2021/04/15 14:56:44;;;;;;;3.00;0.77;;;;;;;;;;5065314;28;20044;-64
2021/04/15 14:59:20;;;;;;;2.47;0.52;;;;;;;;;;5067112;28;20166;-63
2021/04/15 15:01:46;;;;;;;2.88;0.85;;;;;;;;;;5064994;28;20023;-65
2021/04/15 15:04:20;;;;;;;0.82;0.70;;;;;;;;;;5042257;28;20045;-66
2021/04/15 15:06:48;;;;;;;2.70;1.67;;;;;;;;;;5064432;28;20066;-65
2021/04/15 15:09:19;;;;;;;3.05;1.63;;;;;;;;;;5064478;28;20020;-65
2021/04/15 15:11:46;;;;;;;0.80;0.65;;;;;;;;;;5062923;28;20036;-67
2021/04/15 15:14:15;;;;;;;0.25;0.25;;;;;;;;;;5062490;28;20047;-61
2021/04/15 15:16:43;;;;;;;0.55;0.55;;;;;;;;;;5064333;28;20063;-66
2021/04/15 15:19:19;;;;;;;0.45;0.45;;;;;;;;;;5059225;28;20048;-66
2021/04/15 15:21:47;;;;;;;0.55;0.55;;;;;;;;;;5063935;28;20115;-67
2021/04/15 15:24:22;;;;;;;1.75;1.17;;;;;;;;;;5061737;28;20430;-65
2021/04/15 15:26:49;;;;;;;2.10;0.52;;;;;;;;;;5057809;28;20116;-64
2021/04/15 15:29:17;;;;;;;2.85;0.65;;;;;;;;;;5065878;28;20550;-66